Time;durP1;ratioP1;P1;durP2;ratioP2;P2;SDS_P1;SDS_P2;PMS_P1;PMS_P2;Temp;Humidity;BMP_temperature;BMP_pressure;BME280_temperature;BME280_humidity;BME280_pressure;Samples;Min_cycle;Max_cycle;Signal;HPM_P1;HPM_P2
2022/09/21 00:01:19;;;;;;;;;;;;;;;11.55;84.83;102638.69;5115220;28;20388;-34
2022/09/21 00:03:44;;;;;;;;;;;;;;;11.53;84.70;102637.22;5115601;28;19912;-34
2022/09/21 00:06:12;;;;;;;;;;;;;;;11.53;84.88;102640.75;5115182;28;19919;-34
2022/09/21 00:08:37;;;;;;;;;;;;;;;11.51;85.03;102642.81;5115662;28;19911;-34
2022/09/21 00:11:04;;;;;;;;;;;;;;;11.47;84.81;102638.84;5114965;28;19942;-34
2022/09/21 00:13:31;;;;;;;;;;;;;;;11.44;85.09;102633.78;5116096;27;19916;-34
2022/09/21 00:15:56;;;;;;;;;;;;;;;11.41;85.17;102636.88;5114926;28;19951;-34
2022/09/21 00:18:22;;;;;;;;;;;;;;;11.40;85.04;102635.19;5115236;28;19930;-34
2022/09/21 00:20:47;;;;;;;;;;;;;;;11.39;85.21;102638.13;5115074;28;20407;-34
2022/09/21 00:23:13;;;;;;;;;;;;;;;11.35;85.43;102632.25;5115899;27;19961;-34
2022/09/21 00:25:38;;;;;;;;;;;;;;;11.29;85.03;102628.44;5115340;28;19912;-34
2022/09/21 00:28:03;;;;;;;;;;;;;;;11.26;85.59;102627.97;5114961;28;19911;-34
2022/09/21 00:30:29;;;;;;;;;;;;;;;11.22;85.62;102622.09;5114595;28;20284;-34
2022/09/21 00:32:54;;;;;;;;;;;;;;;11.16;85.45;102627.44;5114913;28;19911;-34
2022/09/21 00:35:19;;;;;;;;;;;;;;;11.12;85.48;102631.56;5115203;28;19912;-34
2022/09/21 00:37:45;;;;;;;;;;;;;;;11.06;85.78;102627.75;5114844;27;20274;-34
2022/09/21 00:40:10;;;;;;;;;;;;;;;11.01;85.91;102633.75;5115186;28;20352;-34
2022/09/21 00:42:36;;;;;;;;;;;;;;;10.97;85.38;102632.44;5114716;28;19911;-34
2022/09/21 00:45:01;;;;;;;;;;;;;;;10.93;85.83;102630.28;5114333;28;19912;-34
2022/09/21 00:47:32;;;;;;;;;;;;;;;10.91;85.92;102633.19;5115095;28;20018;-34
2022/09/21 00:49:59;;;;;;;;;;;;;;;10.89;85.98;102634.44;5114883;28;19911;-34
2022/09/21 00:52:25;;;;;;;;;;;;;;;10.87;86.03;102629.19;5114364;28;19922;-34
2022/09/21 00:54:52;;;;;;;;;;;;;;;10.88;86.32;102630.84;5114729;28;20007;-34
2022/09/21 00:57:20;;;;;;;;;;;;;;;10.86;86.10;102632.09;5114461;28;20010;-34
2022/09/21 00:59:48;;;;;;;;;;;;;;;10.85;86.11;102641.25;5114391;28;19947;-34
2022/09/21 01:02:14;;;;;;;;;;;;;;;10.84;85.92;102632.28;5114078;28;19970;-34
2022/09/21 01:04:39;;;;;;;;;;;;;;;10.81;86.17;102635.38;5114343;28;19924;-34
2022/09/21 01:07:11;;;;;;;;;;;;;;;10.76;86.76;102637.81;5114865;28;20020;-34
2022/09/21 01:09:36;;;;;;;;;;;;;;;10.73;86.74;102639.00;5114477;28;19911;-34
2022/09/21 01:12:05;;;;;;;;;;;;;;;10.72;86.61;102641.91;5114693;28;20006;-34
2022/09/21 01:14:48;;;;;;;;;;;;;;;10.72;86.53;102644.59;5114562;28;20348;-34
2022/09/21 01:17:17;;;;;;;;;;;;;;;10.71;86.88;102643.78;5113835;28;19915;-34
2022/09/21 01:19:52;;;;;;;;;;;;;;;10.71;86.86;102634.81;5113733;28;20352;-34
2022/09/21 01:22:24;;;;;;;;;;;;;;;10.70;86.67;102641.28;5114043;28;19912;-34
2022/09/21 01:25:02;;;;;;;;;;;;;;;10.67;86.98;102639.75;5114002;28;20447;-34
2022/09/21 01:27:28;;;;;;;;;;;;;;;10.65;86.75;102641.00;5114296;28;19937;-34
2022/09/21 01:30:02;;;;;;;;;;;;;;;10.64;87.08;102644.69;5113842;28;19915;-34
2022/09/21 01:32:30;;;;;;;;;;;;;;;10.62;87.11;102646.75;5113890;28;19958;-34
2022/09/21 01:34:59;;;;;;;;;;;;;;;10.60;87.22;102644.25;5113869;28;19912;-34
2022/09/21 01:37:44;;;;;;;;;;;;;;;10.58;87.18;102639.00;5113534;28;19955;-34
2022/09/21 01:40:17;;;;;;;;;;;;;;;10.57;87.16;102640.03;5099498;28;19911;-34
2022/09/21 01:42:44;;;;;;;;;;;;;;;10.56;87.04;102638.38;5114060;28;20343;-34
2022/09/21 01:45:11;;;;;;;;;;;;;;;10.56;87.43;102642.94;5113817;28;19928;-34
2022/09/21 01:47:38;;;;;;;;;;;;;;;10.54;87.41;102645.84;5113824;28;20381;-34
2022/09/21 01:50:04;;;;;;;;;;;;;;;10.52;87.19;102642.47;5113464;28;19916;-34
2022/09/21 01:52:36;;;;;;;;;;;;;;;10.53;87.21;102646.00;5113920;28;20317;-34
2022/09/21 01:55:16;;;;;;;;;;;;;;;10.52;87.34;102638.94;5113638;28;20023;-34
2022/09/21 01:57:45;;;;;;;;;;;;;;;10.50;87.51;102647.25;5113671;28;19918;-34
2022/09/21 02:00:11;;;;;;;;;;;;;;;10.48;87.66;102641.16;5113784;28;20384;-34
2022/09/21 02:02:57;;;;;;;;;;;;;;;10.47;87.47;102639.50;5113593;28;19919;-34
2022/09/21 02:05:24;;;;;;;;;;;;;;;10.48;87.68;102638.47;5113757;28;19912;-34
2022/09/21 02:07:50;;;;;;;;;;;;;;;10.48;87.66;102646.56;5113283;28;20394;-35
2022/09/21 02:10:34;;;;;;;;;;;;;;;10.48;87.38;102643.88;5113559;28;19958;-34
2022/09/21 02:13:01;;;;;;;;;;;;;;;10.46;87.80;102642.41;5112756;28;20302;-34
2022/09/21 02:15:31;;;;;;;;;;;;;;;10.44;87.64;102642.59;5113567;28;19912;-34
2022/09/21 02:18:05;;;;;;;;;;;;;;;10.39;87.72;102642.28;5113256;28;19915;-34
2022/09/21 02:20:38;;;;;;;;;;;;;;;10.37;87.73;102638.94;5113054;28;19926;-34
2022/09/21 02:23:15;;;;;;;;;;;;;;;10.35;87.51;102651.81;5115883;28;19915;-34
2022/09/21 02:25:59;;;;;;;;;;;;;;;10.32;88.15;102647.59;5117661;28;19911;-34
2022/09/21 02:28:45;;;;;;;;;;;;;;;10.28;87.76;102645.44;5117451;28;20451;-34
2022/09/21 02:31:14;;;;;;;;;;;;;;;10.24;87.69;102636.03;5117282;28;20312;-34
2022/09/21 02:33:52;;;;;;;;;;;;;;;10.20;87.86;102637.38;5117060;28;20268;-34
2022/09/21 02:36:21;;;;;;;;;;;;;;;10.17;87.94;102637.78;5117807;28;19918;-34
2022/09/21 02:38:51;;;;;;;;;;;;;;;10.15;87.65;102645.22;5117931;28;19912;-34
2022/09/21 02:41:33;;;;;;;;;;;;;;;10.12;87.90;102635.63;5117374;28;20012;-34
2022/09/21 02:44:13;;;;;;;;;;;;;;;10.10;87.94;102640.34;5117084;28;19918;-34
2022/09/21 02:46:48;;;;;;;;;;;;;;;10.06;88.20;102648.00;5117023;28;19911;-34
2022/09/21 02:49:18;;;;;;;;;;;;;;;10.03;88.06;102645.66;5116682;28;19922;-34
2022/09/21 02:51:48;;;;;;;;;;;;;;;10.00;88.28;102637.94;5117095;28;20329;-34
2022/09/21 02:54:16;;;;;;;;;;;;;;;9.96;88.21;102635.78;5116495;28;19919;-34
2022/09/21 02:56:41;;;;;;;;;;;;;;;9.92;88.33;102642.56;5116561;27;19918;-34
2022/09/21 02:59:07;;;;;;;;;;;;;;;9.88;88.50;102642.09;5116687;28;19998;-34
2022/09/21 03:01:32;;;;;;;;;;;;;;;9.85;88.17;102645.16;5116631;28;19912;-34
2022/09/21 03:03:58;;;;;;;;;;;;;;;9.81;88.37;102638.44;5117018;28;20318;-34
2022/09/21 03:06:23;;;;;;;;;;;;;;;9.76;88.43;102638.13;5116880;28;19939;-34
2022/09/21 03:08:49;;;;;;;;;;;;;;;9.72;88.35;102634.97;5116814;28;20397;-34
2022/09/21 03:11:17;;;;;;;;;;;;;;;9.69;88.44;102640.72;5116118;28;19915;-34
2022/09/21 03:13:43;;;;;;;;;;;;;;;9.66;88.49;102640.25;5117268;28;20123;-34
2022/09/21 03:16:09;;;;;;;;;;;;;;;9.61;88.71;102642.66;5116848;28;19918;-34
2022/09/21 03:18:34;;;;;;;;;;;;;;;9.55;88.52;102642.34;5115510;28;19912;-34
2022/09/21 03:20:59;;;;;;;;;;;;;;;9.51;88.09;102646.44;5116279;28;19912;-34
2022/09/21 03:23:25;;;;;;;;;;;;;;;9.48;88.58;102643.28;5116149;28;19912;-34
2022/09/21 03:25:53;;;;;;;;;;;;;;;9.46;88.53;102650.69;5116270;28;19964;-34
2022/09/21 03:28:19;;;;;;;;;;;;;;;9.42;88.59;102650.22;5116752;28;19999;-34
2022/09/21 03:30:44;;;;;;;;;;;;;;;9.40;88.74;102657.66;5115890;28;20356;-34
2022/09/21 03:33:11;;;;;;;;;;;;;;;9.40;89.04;102649.56;5116456;28;19918;-34
2022/09/21 03:35:36;;;;;;;;;;;;;;;9.37;88.89;102655.34;5116512;28;19918;-34
2022/09/21 03:38:02;;;;;;;;;;;;;;;9.32;88.40;102657.72;5116550;28;19916;-34
2022/09/21 03:40:27;;;;;;;;;;;;;;;9.27;88.78;102652.88;5116623;28;19918;-34
2022/09/21 03:42:53;;;;;;;;;;;;;;;9.25;88.84;102662.16;5115983;28;19922;-34
2022/09/21 03:45:20;;;;;;;;;;;;;;;9.22;89.32;102654.38;5115865;28;19911;-34
2022/09/21 03:47:46;;;;;;;;;;;;;;;9.18;89.09;102663.88;5116310;28;19912;-34
2022/09/21 03:50:11;;;;;;;;;;;;;;;9.14;88.59;102662.56;5116305;28;19911;-34
2022/09/21 03:52:37;;;;;;;;;;;;;;;9.10;88.74;102664.75;5115782;28;19912;-34
2022/09/21 03:55:05;;;;;;;;;;;;;;;9.06;88.84;102663.44;5115819;28;19956;-34
2022/09/21 03:57:30;;;;;;;;;;;;;;;9.03;88.50;102664.63;5116165;28;19919;-34
2022/09/21 03:59:55;;;;;;;;;;;;;;;9.01;89.23;102668.50;5115603;28;19912;-34
2022/09/21 04:02:21;;;;;;;;;;;;;;;8.99;88.85;102667.84;5115527;28;19955;-34
2022/09/21 04:04:46;;;;;;;;;;;;;;;8.99;89.37;102670.56;5115500;28;19918;-34
2022/09/21 04:07:11;;;;;;;;;;;;;;;8.95;89.25;102667.38;5115920;28;19918;-34
2022/09/21 04:09:36;;;;;;;;;;;;;;;8.94;88.90;102659.44;5114235;28;20356;-34
2022/09/21 04:12:02;;;;;;;;;;;;;;;8.92;89.56;102664.16;5115925;28;19919;-34
2022/09/21 04:14:27;;;;;;;;;;;;;;;8.91;88.49;102660.63;5115211;28;20315;-34
2022/09/21 04:16:53;;;;;;;;;;;;;;;8.87;89.23;102653.91;5114660;28;19916;-34
2022/09/21 04:19:18;;;;;;;;;;;;;;;8.85;89.01;102657.81;5115435;28;19919;-34
2022/09/21 04:21:43;;;;;;;;;;;;;;;8.83;88.76;102663.34;5115132;28;20351;-34
2022/09/21 04:24:09;;;;;;;;;;;;;;;8.79;88.64;102658.50;5115623;28;19926;-34
2022/09/21 04:26:34;;;;;;;;;;;;;;;8.75;89.21;102656.16;5115332;28;19912;-34
2022/09/21 04:29:00;;;;;;;;;;;;;;;8.72;89.39;102656.50;5115315;28;20014;-34
2022/09/21 04:31:26;;;;;;;;;;;;;;;8.70;89.01;102655.84;5114630;28;20363;-34
2022/09/21 04:33:52;;;;;;;;;;;;;;;8.67;89.12;102660.72;5115393;28;19911;-33
2022/09/21 04:36:18;;;;;;;;;;;;;;;8.64;89.14;102669.19;5115669;28;19912;-34
2022/09/21 04:38:44;;;;;;;;;;;;;;;8.60;89.30;102671.38;5115363;28;19919;-34
2022/09/21 04:41:09;;;;;;;;;;;;;;;8.57;89.76;102665.50;5114749;28;19912;-34
2022/09/21 04:43:35;;;;;;;;;;;;;;;8.55;89.80;102667.53;5114697;28;19911;-34
2022/09/21 04:46:07;;;;;;;;;;;;;;;8.51;89.06;102675.94;5113764;27;19934;-34
2022/09/21 04:48:33;;;;;;;;;;;;;;;8.50;88.91;102676.13;5115347;27;19923;-34
2022/09/21 04:50:58;;;;;;;;;;;;;;;8.50;89.45;102673.44;5114516;28;20224;-34
2022/09/21 04:53:23;;;;;;;;;;;;;;;8.48;89.04;102670.91;5115044;28;20090;-34
2022/09/21 04:55:49;;;;;;;;;;;;;;;8.44;89.69;102674.97;5114320;28;20018;-34
2022/09/21 04:58:14;;;;;;;;;;;;;;;8.41;89.15;102679.84;5114667;28;19916;-34
2022/09/21 05:00:39;;;;;;;;;;;;;;;8.37;89.43;102681.22;5114438;28;19923;-34
2022/09/21 05:03:04;;;;;;;;;;;;;;;8.34;88.98;102682.34;5114985;28;20295;-34
2022/09/21 05:05:30;;;;;;;;;;;;;;;8.34;89.33;102682.34;5114301;28;19935;-34
2022/09/21 05:07:56;;;;;;;;;;;;;;;8.32;90.04;102678.16;5114656;28;19942;-34
2022/09/21 05:10:21;;;;;;;;;;;;;;;8.32;89.86;102687.09;5114593;28;19911;-34
2022/09/21 05:12:46;;;;;;;;;;;;;;;8.31;89.78;102687.25;5115633;28;19915;-34
2022/09/21 05:15:12;;;;;;;;;;;;;;;8.29;89.91;102679.31;5114661;28;20402;-39
2022/09/21 05:17:37;;;;;;;;;;;;;;;8.29;90.01;102684.72;5114742;28;19918;-35
2022/09/21 05:20:02;;;;;;;;;;;;;;;8.27;90.03;102682.19;5114313;28;20348;-34
2022/09/21 05:22:28;;;;;;;;;;;;;;;8.20;89.62;102675.00;5114332;28;19964;-34
2022/09/21 05:24:54;;;;;;;;;;;;;;;8.24;89.25;102687.09;5114297;28;19911;-34
2022/09/21 05:27:19;;;;;;;;;;;;;;;8.22;89.83;102686.44;5113536;28;19911;-34
2022/09/21 05:29:45;;;;;;;;;;;;;;;8.21;89.22;102692.84;5114815;28;19912;-34
2022/09/21 05:32:19;;;;;;;;;;;;;;;8.21;89.35;102690.13;5114295;28;19919;-34
2022/09/21 05:35:03;;;;;;;;;;;;;;;8.22;89.52;102695.34;5114211;28;20328;-34
2022/09/21 05:37:31;;;;;;;;;;;;;;;8.19;89.18;102695.69;5114300;28;19911;-34
2022/09/21 05:39:56;;;;;;;;;;;;;;;8.20;89.57;102708.16;5114260;28;19919;-34
2022/09/21 05:42:22;;;;;;;;;;;;;;;8.22;89.07;102710.69;5113397;28;19912;-34
2022/09/21 05:44:48;;;;;;;;;;;;;;;8.23;89.21;102696.19;5113754;28;19912;-34
2022/09/21 05:47:16;;;;;;;;;;;;;;;8.23;89.55;102706.97;5113813;28;20434;-34
2022/09/21 05:49:41;;;;;;;;;;;;;;;8.22;89.69;102708.00;5113685;28;19977;-34
2022/09/21 05:52:20;;;;;;;;;;;;;;;8.20;88.85;102710.03;5113782;28;19915;-34
2022/09/21 05:55:02;;;;;;;;;;;;;;;8.22;88.91;102706.13;5114083;28;19912;-34
2022/09/21 05:57:34;;;;;;;;;;;;;;;8.28;89.88;102707.31;5115630;28;20350;-33
2022/09/21 06:00:13;;;;;;;;;;;;;;;8.31;89.55;102706.97;5118604;28;19999;-33
2022/09/21 06:02:41;;;;;;;;;;;;;;;8.33;90.13;102721.09;5118615;28;19915;-33
2022/09/21 06:05:11;;;;;;;;;;;;;;;8.35;89.32;102711.00;5117575;28;20010;-33
2022/09/21 06:07:36;;;;;;;;;;;;;;;8.39;89.66;102716.91;5118618;28;19987;-33
2022/09/21 06:10:02;;;;;;;;;;;;;;;8.41;89.34;102709.50;5117873;28;20363;-33
2022/09/21 06:12:27;;;;;;;;;;;;;;;8.40;89.75;102719.47;5118297;28;20271;-34
2022/09/21 06:14:54;;;;;;;;;;;;;;;8.38;89.01;102720.63;5117826;28;19912;-33
2022/09/21 06:17:20;;;;;;;;;;;;;;;8.34;89.69;102725.47;5118029;28;19973;-34
2022/09/21 06:19:45;;;;;;;;;;;;;;;8.31;89.40;102723.16;5117703;28;19943;-34
2022/09/21 06:22:10;;;;;;;;;;;;;;;8.33;89.48;102728.34;5118157;28;19915;-34
2022/09/21 06:24:35;;;;;;;;;;;;;;;8.36;89.79;102728.03;5117393;28;19915;-34
2022/09/21 06:27:00;;;;;;;;;;;;;;;8.36;90.33;102726.19;5117369;28;20291;-34
2022/09/21 06:29:26;;;;;;;;;;;;;;;8.40;90.04;102730.25;5117558;28;19911;-34
2022/09/21 06:31:51;;;;;;;;;;;;;;;8.38;90.15;102720.63;5117269;28;19970;-34
2022/09/21 06:34:17;;;;;;;;;;;;;;;8.41;89.87;102723.84;5116064;28;20014;-34
2022/09/21 06:36:43;;;;;;;;;;;;;;;8.41;89.93;102723.84;5118232;28;19916;-34
2022/09/21 06:39:08;;;;;;;;;;;;;;;8.39;89.47;102730.38;5117280;28;20016;-34
2022/09/21 06:41:33;;;;;;;;;;;;;;;8.49;90.20;102729.22;5117851;28;20011;-34
2022/09/21 06:43:58;;;;;;;;;;;;;;;8.56;90.74;102731.22;5117337;28;20006;-34
2022/09/21 06:46:24;;;;;;;;;;;;;;;8.59;92.95;102723.66;5118065;28;19918;-34
2022/09/21 06:48:49;;;;;;;;;;;;;;;8.70;95.40;102733.22;5118117;28;20014;-34
2022/09/21 06:51:14;;;;;;;;;;;;;;;8.80;96.81;102731.16;5116847;28;19918;-34
2022/09/21 06:53:39;;;;;;;;;;;;;;;8.82;95.99;102731.81;5118137;28;19918;-34
2022/09/21 06:56:06;;;;;;;;;;;;;;;8.90;96.43;102725.56;5116789;28;19981;-34
2022/09/21 06:58:33;;;;;;;;;;;;;;;9.01;98.60;102728.72;5117112;28;19943;-34
2022/09/21 07:01:03;;;;;;;;;;;;;;;9.13;97.34;102725.66;5116839;28;19918;-34
2022/09/21 07:03:28;;;;;;;;;;;;;;;9.19;97.86;102725.78;5117562;28;19911;-33
2022/09/21 07:05:53;;;;;;;;;;;;;;;9.30;100.00;102727.25;5116606;28;20440;-33
2022/09/21 07:08:19;;;;;;;;;;;;;;;9.39;98.30;102728.88;5114908;28;19912;-33
2022/09/21 07:10:44;;;;;;;;;;;;;;;9.46;98.46;102724.44;5116644;28;19912;-34
2022/09/21 07:13:09;;;;;;;;;;;;;;;9.55;99.27;102731.47;5116823;28;19951;-33
2022/09/21 07:15:35;;;;;;;;;;;;;;;9.66;98.64;102732.97;5116568;28;19916;-33
2022/09/21 07:18:08;;;;;;;;;;;;;;;9.75;99.87;102729.16;5115660;28;19916;-33
2022/09/21 07:20:34;;;;;;;;;;;;;;;9.80;98.20;102728.63;5116309;28;20252;-33
2022/09/21 07:23:00;;;;;;;;;;;;;;;9.89;99.05;102724.00;5116557;28;19918;-34
2022/09/21 07:25:25;;;;;;;;;;;;;;;9.98;98.63;102729.16;5116575;28;19973;-34
2022/09/21 07:27:51;;;;;;;;;;;;;;;10.10;99.16;102723.31;5116813;28;19912;-34
2022/09/21 07:30:16;;;;;;;;;;;;;;;10.20;98.81;102726.59;5116440;28;19912;-34
2022/09/21 07:32:41;;;;;;;;;;;;;;;10.28;98.15;102731.97;5116899;28;19924;-34
2022/09/21 07:35:06;;;;;;;;;;;;;;;10.35;97.34;102727.53;5116329;28;19912;-34
2022/09/21 07:37:32;;;;;;;;;;;;;;;10.43;97.55;102727.44;5116408;28;19954;-34
2022/09/21 07:39:57;;;;;;;;;;;;;;;10.54;96.83;102720.72;5116364;28;19962;-34
2022/09/21 07:42:24;;;;;;;;;;;;;;;10.61;96.48;102715.44;5116183;28;19922;-34
2022/09/21 07:44:49;;;;;;;;;;;;;;;10.71;96.14;102716.84;5115820;28;19911;-34
2022/09/21 07:47:15;;;;;;;;;;;;;;;10.80;95.96;102714.88;5116135;28;20044;-34
2022/09/21 07:49:41;;;;;;;;;;;;;;;10.92;95.53;102723.34;5116349;28;19911;-34
2022/09/21 07:52:07;;;;;;;;;;;;;;;10.98;95.04;102715.34;5116022;28;19912;-34
2022/09/21 07:54:33;;;;;;;;;;;;;;;11.06;94.64;102715.22;5115639;28;19923;-34
2022/09/21 07:59:42;;;;;;;;;;;;;;;11.26;94.03;102715.47;5116219;28;19961;-34
2022/09/21 08:02:07;;;;;;;;;;;;;;;11.37;93.67;102710.59;5116193;28;19915;-34
2022/09/21 08:04:32;;;;;;;;;;;;;;;11.48;93.36;102715.53;5115484;28;19922;-34
2022/09/21 08:06:58;;;;;;;;;;;;;;;11.57;93.07;102714.38;5115686;28;19947;-34
2022/09/21 08:09:23;;;;;;;;;;;;;;;11.66;92.37;102702.34;5116045;28;19958;-34
2022/09/21 08:11:50;;;;;;;;;;;;;;;11.77;91.31;102701.88;5115608;28;19923;-34
2022/09/21 08:14:18;;;;;;;;;;;;;;;11.88;90.08;102705.13;5115529;28;19911;-34
2022/09/21 08:16:43;;;;;;;;;;;;;;;11.95;90.26;102701.41;5116242;28;20271;-34
2022/09/21 08:19:09;;;;;;;;;;;;;;;12.06;90.27;102705.50;5115605;28;20002;-34
2022/09/21 08:21:34;;;;;;;;;;;;;;;12.14;88.25;102702.63;5115047;28;19916;-34
2022/09/21 08:23:59;;;;;;;;;;;;;;;12.24;88.55;102711.25;5115330;28;19911;-34
2022/09/21 08:26:25;;;;;;;;;;;;;;;12.34;87.60;102711.75;5115094;28;19918;-34
2022/09/21 08:28:51;;;;;;;;;;;;;;;12.40;85.04;102712.03;5115283;28;19918;-34
2022/09/21 08:31:18;;;;;;;;;;;;;;;12.46;85.71;102717.50;5114881;28;20408;-34
2022/09/21 08:33:43;;;;;;;;;;;;;;;12.49;84.52;102710.81;5114196;28;19919;-34
2022/09/21 08:36:09;;;;;;;;;;;;;;;12.54;84.38;102719.19;5115040;28;19911;-34
2022/09/21 08:38:35;;;;;;;;;;;;;;;12.59;83.28;102717.59;5115336;28;20321;-34
2022/09/21 08:41:01;;;;;;;;;;;;;;;12.69;82.61;102717.22;5114961;28;20363;-34
2022/09/21 08:43:39;;;;;;;;;;;;;;;12.78;80.18;102718.72;5115026;28;19911;-34
2022/09/21 08:46:05;;;;;;;;;;;;;;;12.84;81.76;102715.22;5115041;28;19912;-34
2022/09/21 08:48:34;;;;;;;;;;;;;;;12.86;78.44;102720.44;5115765;27;20020;-34
2022/09/21 08:51:01;;;;;;;;;;;;;;;12.93;80.55;102723.19;5114834;28;20002;-34
2022/09/21 08:53:32;;;;;;;;;;;;;;;13.01;80.43;102723.03;5114808;28;19911;-34
2022/09/21 08:55:57;;;;;;;;;;;;;;;13.13;80.02;102724.97;5114790;28;19911;-34
2022/09/21 08:58:22;;;;;;;;;;;;;;;13.19;78.81;102723.31;5115288;28;19923;-34
2022/09/21 09:00:51;;;;;;;;;;;;;;;13.27;79.60;102720.44;5113367;28;19919;-34
2022/09/21 09:03:23;;;;;;;;;;;;;;;13.37;80.18;102715.50;5115002;28;20352;-34
2022/09/21 09:05:51;;;;;;;;;;;;;;;13.46;80.11;102724.28;5114453;28;20010;-34
2022/09/21 09:08:35;;;;;;;;;;;;;;;13.53;76.91;102727.88;5115133;27;20360;-35
2022/09/21 09:11:01;;;;;;;;;;;;;;;13.63;79.25;102730.19;5114660;28;20023;-33
2022/09/21 09:13:45;;;;;;;;;;;;;;;13.69;77.16;102729.38;5114456;28;20437;-33
2022/09/21 09:16:16;;;;;;;;;;;;;;;13.76;77.81;102723.94;5114674;28;19911;-33
2022/09/21 09:18:53;;;;;;;;;;;;;;;13.85;78.72;102728.97;5114855;28;19912;-33
2022/09/21 09:21:24;;;;;;;;;;;;;;;13.94;79.39;102731.50;5114506;28;19965;-33
2022/09/21 09:23:52;;;;;;;;;;;;;;;14.01;78.85;102733.19;5114531;28;19911;-33
2022/09/21 09:26:25;;;;;;;;;;;;;;;14.07;76.00;102732.34;5114279;28;19911;-34
2022/09/21 09:28:53;;;;;;;;;;;;;;;14.20;78.21;102731.53;5114975;28;19983;-34
2022/09/21 09:31:30;;;;;;;;;;;;;;;14.32;75.77;102734.44;5113976;28;20056;-34
2022/09/21 09:34:16;;;;;;;;;;;;;;;14.40;77.85;102728.81;5114202;28;19934;-34
2022/09/21 09:36:47;;;;;;;;;;;;;;;14.46;75.96;102725.22;5114087;28;19912;-34
2022/09/21 09:39:14;;;;;;;;;;;;;;;14.58;74.67;102726.28;5114860;28;19915;-34
2022/09/21 09:41:39;;;;;;;;;;;;;;;14.65;76.02;102724.38;5114163;28;19964;-34
2022/09/21 09:44:33;;;;;;;;;;;;;;;14.51;73.35;102732.78;5114399;28;20018;-34
2022/09/21 09:47:04;;;;;;;;;;;;;;;14.47;75.26;102729.63;5031778;28;19944;-34
2022/09/21 09:49:39;;;;;;;;;;;;;;;14.53;70.02;102733.41;5031324;28;20357;-34
2022/09/21 09:52:04;;;;;;;;;;;;;;;14.61;69.32;102725.03;5031167;28;19913;-34
2022/09/21 09:54:32;;;;;;;;;;;;;;;14.61;71.21;102733.19;5031105;28;19982;-34
2022/09/21 09:56:58;;;;;;;;;;;;;;;14.51;71.74;102732.78;5031203;28;19920;-34
2022/09/21 09:59:41;;;;;;;;;;;;;;;14.51;72.72;102733.63;5031235;28;19913;-34
2022/09/21 10:02:27;;;;;;;;;;;;;;;14.49;70.25;102735.69;5031173;28;19955;-35
2022/09/21 10:04:52;;;;;;;;;;;;;;;14.40;72.40;102732.34;5030623;28;20436;-34
2022/09/21 10:07:18;;;;;;;;;;;;;;;14.31;72.66;102728.16;5031186;28;19952;-34
2022/09/21 10:09:43;;;;;;;;;;;;;;;14.27;74.29;102731.50;5030880;28;19913;-34
2022/09/21 10:12:15;;;;;;;;;;;;;;;14.23;74.29;102732.97;5014626;28;19917;-34
2022/09/21 10:14:47;;;;;;;;;;;;;;;14.14;70.68;102733.19;5030854;28;19913;-34
2022/09/21 10:17:15;;;;;;;;;;;;;;;14.16;73.58;102730.28;5031162;28;19927;-34
2022/09/21 10:19:40;;;;;;;;;;;;;;;14.15;72.10;102731.28;5030927;28;19948;-34
2022/09/21 10:22:06;;;;;;;;;;;;;;;14.18;73.82;102734.44;5031653;28;20442;-35
2022/09/21 10:24:39;;;;;;;;;;;;;;;14.21;74.22;102725.03;5112734;28;20113;-35
2022/09/21 10:27:12;;;;;;;;;;;;;;;14.25;74.79;102725.44;5113628;28;20020;-35
2022/09/21 10:29:39;;;;;;;;;;;;;;;14.25;70.77;102720.00;5113558;28;19912;-35
2022/09/21 10:32:11;;;;;;;;;;;;;;;14.28;72.92;102722.31;5114126;28;20041;-35
2022/09/21 10:34:37;;;;;;;;;;;;;;;14.35;74.45;102725.88;5114017;28;19915;-35
2022/09/21 10:37:21;;;;;;;;;;;;;;;14.40;74.61;102718.75;5113798;28;19916;-35
2022/09/21 10:39:47;;;;;;;;;;;;;;;14.44;73.54;102713.69;5114339;28;20342;-35
2022/09/21 10:42:14;;;;;;;;;;;;;;;14.49;74.52;102718.53;5113615;28;19963;-35
2022/09/21 10:44:40;;;;;;;;;;;;;;;14.52;73.86;102713.50;5116055;28;19918;-35
2022/09/21 10:47:20;;;;;;;;;;;;;;;14.55;69.29;102712.28;5117757;28;19916;-35
2022/09/21 10:49:50;;;;;;;;;;;;;;;14.61;72.17;102712.25;5116967;28;19912;-35
2022/09/21 10:52:18;;;;;;;;;;;;;;;14.74;70.71;102705.06;5117691;28;19931;-35
2022/09/21 10:54:44;;;;;;;;;;;;;;;14.85;71.89;102707.16;5117698;28;19911;-35
2022/09/21 10:57:14;;;;;;;;;;;;;;;15.11;69.36;102707.06;5117412;28;20038;-35
2022/09/21 10:59:40;;;;;;;;;;;;;;;15.49;69.13;102702.69;5117137;28;20022;-35
2022/09/21 11:02:25;;;;;;;;;;;;;;;15.86;70.05;102698.25;5117630;28;19911;-35
2022/09/21 11:05:03;;;;;;;;;;;;;;;16.16;59.11;102699.28;5116990;28;20345;-35
2022/09/21 11:07:33;;;;;;;;;;;;;;;16.26;59.51;102698.78;5116544;28;19966;-35
2022/09/21 11:10:17;;;;;;;;;;;;;;;16.50;62.19;102694.34;5116803;28;20348;-35
2022/09/21 11:12:51;;;;;;;;;;;;;;;16.80;62.96;102693.66;5117161;28;20296;-35
2022/09/21 11:15:20;;;;;;;;;;;;;;;17.02;62.61;102697.56;5116430;28;19947;-36
2022/09/21 11:17:57;;;;;;;;;;;;;;;17.17;60.81;102694.44;5116735;28;20006;-35
2022/09/21 11:20:34;;;;;;;;;;;;;;;17.12;58.57;102697.84;5116885;28;20450;-35
2022/09/21 11:23:03;;;;;;;;;;;;;;;17.09;56.65;102700.25;5116558;28;20382;-35
2022/09/21 11:25:31;;;;;;;;;;;;;;;16.97;59.09;102698.25;5116224;28;20056;-35
2022/09/21 11:28:01;;;;;;;;;;;;;;;16.70;56.95;102694.97;5116982;28;19957;-35
2022/09/21 11:30:30;;;;;;;;;;;;;;;16.40;57.20;102688.59;5116443;28;20255;-35
2022/09/21 11:33:10;;;;;;;;;;;;;;;16.38;59.11;102696.16;5116440;28;19918;-35
2022/09/21 11:35:40;;;;;;;;;;;;;;;16.34;58.27;102693.03;5116769;28;20343;-35
2022/09/21 11:38:06;;;;;;;;;;;;;;;16.40;58.47;102696.78;5116874;28;20271;-35
2022/09/21 11:40:34;;;;;;;;;;;;;;;16.30;55.12;102694.56;5116458;28;19912;-35
2022/09/21 11:43:00;;;;;;;;;;;;;;;16.40;54.76;102694.03;5116763;28;20237;-35
2022/09/21 11:45:44;;;;;;;;;;;;;;;16.46;56.89;102683.03;5116585;27;19995;-35
2022/09/21 11:48:39;;;;;;;;;;;;;;;16.54;57.39;102673.69;5116652;28;19916;-35
2022/09/21 11:51:22;;;;;;;;;;;;;;;16.69;55.11;102676.91;5033515;28;20269;-35
2022/09/21 11:54:07;;;;;;;;;;;;;;;16.92;57.35;102670.78;5033540;28;20268;-35
2022/09/21 11:56:42;;;;;;;;;;;;;;;17.13;58.46;102685.03;5033218;28;19917;-35
2022/09/21 11:59:10;;;;;;;;;;;;;;;17.24;56.84;102665.13;5033536;28;19979;-35
2022/09/21 12:01:35;;;;;;;;;;;;;;;17.38;57.08;102673.97;5032943;28;19913;-35
2022/09/21 12:04:09;;;;;;;;;;;;;;;17.53;58.99;102670.81;5033326;28;19919;-35
2022/09/21 12:06:44;;;;;;;;;;;;;;;17.67;58.52;102667.66;5033286;28;19917;-35
2022/09/21 12:09:28;;;;;;;;;;;;;;;17.82;57.89;102661.75;5033260;28;20397;-35
2022/09/21 12:12:01;;;;;;;;;;;;;;;18.00;57.88;102661.63;5032683;28;19940;-35
2022/09/21 12:14:33;;;;;;;;;;;;;;;18.15;55.07;102652.97;5032758;28;19917;-35
2022/09/21 12:16:58;;;;;;;;;;;;;;;18.27;57.26;102651.06;5016850;28;20306;-35
2022/09/21 12:19:38;;;;;;;;;;;;;;;18.27;51.28;102648.31;5033021;28;20017;-35
2022/09/21 12:22:03;;;;;;;;;;;;;;;18.09;51.96;102653.91;5032685;28;19913;-35
2022/09/21 12:24:38;;;;;;;;;;;;;;;18.07;52.31;102650.59;5032782;28;20411;-35
2022/09/21 12:27:10;;;;;;;;;;;;;;;18.23;54.63;102644.41;5060514;28;19911;-35
2022/09/21 12:29:36;;;;;;;;;;;;;;;18.47;54.26;102638.91;5115212;28;20291;-36
2022/09/21 12:32:04;;;;;;;;;;;;;;;18.61;54.44;102632.09;5115716;28;19911;-36
2022/09/21 12:34:36;;;;;;;;;;;;;;;18.59;51.90;102636.97;5115589;28;20359;-33
2022/09/21 12:37:21;;;;;;;;;;;;;;;18.58;50.23;102624.34;5115396;28;19933;-33
2022/09/21 12:40:05;;;;;;;;;;;;;;;18.45;50.20;102630.94;5115330;28;19911;-35
2022/09/21 12:42:39;;;;;;;;;;;;;;;18.48;51.51;102624.13;5115575;28;19962;-35
2022/09/21 12:45:10;;;;;;;;;;;;;;;18.47;49.78;102619.72;5114962;28;20394;-35
2022/09/21 12:47:56;;;;;;;;;;;;;;;18.51;50.49;102623.66;5115040;28;19911;-35
2022/09/21 12:50:43;;;;;;;;;;;;;;;18.58;53.75;102620.78;5115186;28;20284;-35
2022/09/21 12:53:14;;;;;;;;;;;;;;;18.52;51.15;102620.66;5115663;28;19959;-35